Time;durP1;ratioP1;P1;durP2;ratioP2;P2;SDS_P1;SDS_P2;PMS_P1;PMS_P2;Temp;Humidity;BMP_temperature;BMP_pressure;BME280_temperature;BME280_humidity;BME280_pressure;Samples;Min_cycle;Max_cycle;Signal;HPM_P1;HPM_P2
2022/03/19 00:01:03;;;;;;;13.33;5.57;;;7.90;99.90;;;;;;5040851;28;20202;-78
2022/03/19 00:03:29;;;;;;;12.83;4.50;;;7.80;99.90;;;;;;5041033;28;20200;-78
2022/03/19 00:05:55;;;;;;;14.87;3.90;;;7.80;99.90;;;;;;5037969;28;20175;-78
2022/03/19 00:08:20;;;;;;;14.47;4.73;;;7.70;99.90;;;;;;5036624;28;20758;-79
2022/03/19 00:10:46;;;;;;;15.93;4.70;;;7.70;99.90;;;;;;5042154;28;20200;-78
2022/03/19 00:13:12;;;;;;;11.70;4.00;;;7.60;99.90;;;;;;5042059;28;20696;-78
2022/03/19 00:15:39;;;;;;;15.27;4.97;;;7.60;99.90;;;;;;5038019;28;20223;-78
2022/03/19 00:18:05;;;;;;;11.43;4.10;;;7.60;99.90;;;;;;5038529;28;20250;-79
2022/03/19 00:20:31;;;;;;;16.87;5.23;;;7.50;99.90;;;;;;5038500;28;20681;-78
2022/03/19 00:22:57;;;;;;;15.77;3.90;;;7.50;99.90;;;;;;5045111;28;20208;-78
2022/03/19 00:25:23;;;;;;;15.77;4.83;;;7.40;99.90;;;;;;5045931;28;20212;-79
2022/03/19 00:27:48;;;;;;;11.57;4.17;;;7.40;99.90;;;;;;5036907;28;20254;-78
2022/03/19 00:30:14;;;;;;;13.20;4.20;;;7.40;99.90;;;;;;5041173;28;20181;-78
2022/03/19 00:32:39;;;;;;;15.63;4.50;;;7.30;99.90;;;;;;5041763;28;20761;-79
2022/03/19 00:35:07;;;;;;;13.80;4.30;;;7.30;99.90;;;;;;5042045;28;20228;-78
2022/03/19 00:37:40;;;;;;;13.43;4.00;;;7.30;99.90;;;;;;5043409;28;20212;-78
2022/03/19 00:40:07;;;;;;;13.27;4.33;;;7.30;99.90;;;;;;5043771;28;20208;-79
2022/03/19 00:42:33;;;;;;;14.57;4.80;;;7.30;99.90;;;;;;5043419;28;20629;-78
2022/03/19 00:44:58;;;;;;;10.40;3.90;;;7.30;99.90;;;;;;5042234;28;20199;-78
2022/03/19 00:47:24;;;;;;;15.80;4.53;;;7.30;99.90;;;;;;5040732;28;20258;-79
2022/03/19 00:49:49;;;;;;;12.27;5.17;;;7.20;99.90;;;;;;5043112;28;20200;-78
2022/03/19 00:52:15;;;;;;;13.27;4.87;;;7.10;99.90;;;;;;5043673;28;20626;-78
2022/03/19 00:54:40;;;;;;;12.17;4.33;;;7.00;99.90;;;;;;5043017;28;20215;-79
2022/03/19 00:57:06;;;;;;;17.87;5.17;;;7.00;99.90;;;;;;5044103;28;20661;-78
2022/03/19 00:59:31;;;;;;;13.13;4.60;;;7.10;99.90;;;;;;5041227;28;20211;-79
2022/03/19 01:01:57;;;;;;;10.70;4.17;;;7.10;99.90;;;;;;5041319;28;20729;-79
2022/03/19 01:04:22;;;;;;;18.60;4.77;;;7.10;99.90;;;;;;5040003;28;20219;-78
2022/03/19 01:06:48;;;;;;;16.47;4.47;;;7.00;99.90;;;;;;5044719;28;20290;-79
2022/03/19 01:09:13;;;;;;;17.23;4.53;;;7.10;99.90;;;;;;5044466;28;20239;-79
2022/03/19 01:11:39;;;;;;;12.03;4.27;;;7.00;99.90;;;;;;5041886;28;20214;-78
2022/03/19 01:14:04;;;;;;;16.13;4.43;;;7.10;99.90;;;;;;5041054;28;20643;-78
2022/03/19 01:16:30;;;;;;;13.13;4.43;;;7.10;99.90;;;;;;5042516;28;20203;-80
2022/03/19 01:18:55;;;;;;;17.17;4.93;;;7.00;99.90;;;;;;5043814;28;20200;-78
2022/03/19 01:21:21;;;;;;;12.90;4.53;;;7.10;99.90;;;;;;5044227;28;20194;-78
2022/03/19 01:23:46;;;;;;;13.10;4.40;;;7.00;99.90;;;;;;5044714;28;20207;-79
2022/03/19 01:26:12;;;;;;;15.30;4.20;;;7.00;99.90;;;;;;5067759;22;20259;-70
2022/03/19 01:28:38;;;;;;;13.23;4.60;;;7.00;99.90;;;;;;5051103;28;20751;-71
2022/03/19 01:31:04;;;;;;;17.47;4.83;;;6.90;99.90;;;;;;5052785;28;20203;-70
2022/03/19 01:33:29;;;;;;;14.30;4.30;;;6.90;99.90;;;;;;5052792;28;20183;-71
2022/03/19 01:35:55;;;;;;;9.40;3.77;;;6.80;99.90;;;;;;5047190;28;20197;-70
2022/03/19 01:38:20;;;;;;;13.23;4.37;;;6.80;99.90;;;;;;5040347;28;20205;-70
2022/03/19 01:40:46;;;;;;;17.67;4.77;;;6.80;99.90;;;;;;5040643;28;20207;-70
2022/03/19 01:43:11;;;;;;;11.47;4.60;;;6.90;99.90;;;;;;5041055;28;20216;-70
2022/03/19 01:45:37;;;;;;;11.97;4.20;;;6.90;99.90;;;;;;5042774;28;20281;-69
2022/03/19 01:48:03;;;;;;;18.37;4.37;;;6.90;99.90;;;;;;5042661;28;20176;-70
2022/03/19 01:50:29;;;;;;;15.87;4.70;;;6.90;99.90;;;;;;5042929;28;20200;-69
2022/03/19 01:52:55;;;;;;;12.60;3.97;;;6.80;99.90;;;;;;5040539;28;20235;-69
2022/03/19 01:55:24;;;;;;;11.13;3.90;;;6.70;99.90;;;;;;5048196;28;20211;-70
2022/03/19 01:57:51;;;;;;;14.30;4.60;;;6.80;99.90;;;;;;5040108;28;20250;-69
2022/03/19 02:00:19;;;;;;;13.63;4.53;;;6.80;99.90;;;;;;5040113;28;20599;-69
2022/03/19 02:02:46;;;;;;;12.83;4.60;;;6.80;99.90;;;;;;5043960;28;20172;-69
2022/03/19 02:05:14;;;;;;;13.07;4.23;;;6.80;99.90;;;;;;5043751;28;20266;-69
2022/03/19 02:07:40;;;;;;;10.67;3.83;;;6.70;99.90;;;;;;5040860;28;20200;-69
2022/03/19 02:10:07;;;;;;;17.60;4.77;;;6.60;99.90;;;;;;5039859;28;20208;-70
2022/03/19 02:12:32;;;;;;;12.60;5.07;;;6.60;99.90;;;;;;5040454;28;20181;-70
2022/03/19 02:14:58;;;;;;;12.97;4.47;;;6.60;99.90;;;;;;5042453;28;20171;-69
2022/03/19 02:17:24;;;;;;;11.27;5.03;;;6.60;99.90;;;;;;5043046;28;20208;-70
2022/03/19 02:19:51;;;;;;;11.53;4.40;;;6.50;99.90;;;;;;5038101;28;20231;-69
2022/03/19 02:22:18;;;;;;;19.33;4.57;;;6.60;99.90;;;;;;5038775;28;20223;-69
2022/03/19 02:27:29;;;;;;;15.47;4.07;;;6.50;99.90;;;;;;5042407;28;20735;-70
2022/03/19 02:29:56;;;;;;;14.87;5.37;;;6.50;99.90;;;;;;5039472;28;20211;-70
2022/03/19 02:32:22;;;;;;;13.00;4.90;;;6.30;99.90;;;;;;5039975;28;20216;-70
2022/03/19 02:34:48;;;;;;;15.07;4.93;;;6.40;99.90;;;;;;5041806;28;20207;-70
2022/03/19 02:37:13;;;;;;;12.50;4.47;;;6.30;99.90;;;;;;5041841;28;20203;-70
2022/03/19 02:39:39;;;;;;;15.57;5.03;;;6.20;99.90;;;;;;5037818;28;20235;-70
2022/03/19 02:42:06;;;;;;;16.50;4.70;;;6.20;99.90;;;;;;5040089;28;20184;-70
2022/03/19 02:44:32;;;;;;;18.93;4.47;;;6.30;99.90;;;;;;5039368;28;20234;-70
2022/03/19 02:47:00;;;;;;;17.30;4.97;;;6.20;99.90;;;;;;5039624;28;20254;-70
2022/03/19 02:49:26;;;;;;;12.90;5.43;;;6.20;99.90;;;;;;5039478;28;20681;-70
2022/03/19 02:51:53;;;;;;;12.53;5.17;;;6.20;99.90;;;;;;5042320;28;20215;-70
2022/03/19 02:54:21;;;;;;;16.50;5.53;;;6.20;99.90;;;;;;5042392;28;20221;-70
2022/03/19 02:56:48;;;;;;;15.07;5.60;;;6.10;99.90;;;;;;5043020;28;20901;-70
2022/03/19 02:59:21;;;;;;;20.33;7.10;;;6.00;99.90;;;;;;5041167;28;20598;-70
2022/03/19 03:01:52;;;;;;;21.80;5.70;;;6.00;99.90;;;;;;5042774;28;20214;-70
2022/03/19 03:04:18;;;;;;;18.63;6.03;;;6.00;99.90;;;;;;5041504;28;20302;-70
2022/03/19 03:06:45;;;;;;;20.37;6.27;;;6.00;99.90;;;;;;5039436;28;20212;-70
2022/03/19 03:09:12;;;;;;;18.63;5.97;;;5.90;99.90;;;;;;5039062;28;20261;-70
2022/03/19 03:11:39;;;;;;;17.63;6.80;;;5.80;99.90;;;;;;5041553;28;20219;-70
2022/03/19 03:14:06;;;;;;;15.43;6.23;;;6.00;99.90;;;;;;5042818;28;20710;-70
2022/03/19 03:16:32;;;;;;;20.77;6.53;;;5.90;99.90;;;;;;5040971;28;20210;-70
2022/03/19 03:19:01;;;;;;;17.53;5.90;;;5.80;99.90;;;;;;5038568;28;20200;-70
2022/03/19 03:21:27;;;;;;;21.50;6.27;;;5.80;99.90;;;;;;5038451;28;20649;-70
2022/03/19 03:23:54;;;;;;;13.50;5.47;;;5.70;99.90;;;;;;5042434;28;20207;-70
2022/03/19 03:26:19;;;;;;;18.67;5.53;;;5.70;99.90;;;;;;5041266;28;20215;-70
2022/03/19 03:28:45;;;;;;;14.60;5.80;;;5.60;99.90;;;;;;5041602;28;20746;-70
2022/03/19 03:31:10;;;;;;;14.63;5.80;;;5.70;99.90;;;;;;5041188;28;20616;-69
2022/03/19 03:33:36;;;;;;;12.30;5.30;;;5.70;99.90;;;;;;5036321;28;20214;-70
2022/03/19 03:36:02;;;;;;;12.97;5.03;;;5.70;99.90;;;;;;5048015;28;20203;-70
2022/03/19 03:38:27;;;;;;;13.03;5.03;;;5.70;99.90;;;;;;5049767;28;20195;-70
2022/03/19 03:40:53;;;;;;;15.90;6.10;;;5.80;99.90;;;;;;5050547;28;20204;-69
2022/03/19 03:43:18;;;;;;;17.13;5.53;;;5.80;99.90;;;;;;5050252;28;20211;-69
2022/03/19 03:45:44;;;;;;;17.97;5.83;;;5.70;99.90;;;;;;5048851;28;20211;-69
2022/03/19 03:48:10;;;;;;;16.50;5.57;;;5.60;99.90;;;;;;5050084;28;20185;-69
2022/03/19 03:50:36;;;;;;;16.47;5.67;;;5.60;99.90;;;;;;5050188;28;20199;-69
2022/03/19 03:53:04;;;;;;;16.43;5.40;;;5.50;99.90;;;;;;5049134;28;20214;-69
2022/03/19 03:55:30;;;;;;;15.03;5.90;;;5.40;99.90;;;;;;5048976;28;20221;-69
2022/03/19 03:57:55;;;;;;;14.30;5.23;;;5.50;99.90;;;;;;5050092;28;20207;-69
2022/03/19 04:00:21;;;;;;;10.80;5.30;;;5.40;99.90;;;;;;5049741;28;20290;-69
2022/03/19 04:02:46;;;;;;;17.30;5.27;;;5.40;99.90;;;;;;5050080;28;20175;-69
2022/03/19 04:05:12;;;;;;;18.93;5.50;;;5.30;99.90;;;;;;5050084;28;20293;-71
2022/03/19 04:07:37;;;;;;;16.07;5.60;;;5.30;99.90;;;;;;5053830;28;20230;-69
2022/03/19 04:10:04;;;;;;;12.83;4.97;;;5.20;99.90;;;;;;5053291;28;20287;-69
2022/03/19 04:12:29;;;;;;;13.00;5.00;;;5.20;99.90;;;;;;5053817;28;20184;-70
2022/03/19 04:14:55;;;;;;;13.87;5.17;;;5.10;99.90;;;;;;5054271;28;20176;-71
2022/03/19 04:17:20;;;;;;;16.33;4.77;;;5.00;99.90;;;;;;5052490;28;20572;-71
2022/03/19 04:19:46;;;;;;;17.60;5.57;;;4.90;99.90;;;;;;5031849;28;20236;-71
2022/03/19 04:22:12;;;;;;;11.43;4.97;;;4.90;99.90;;;;;;5033725;28;20214;-71
2022/03/19 04:24:38;;;;;;;14.93;5.63;;;4.90;99.90;;;;;;5033638;28;20641;-71
2022/03/19 04:27:04;;;;;;;14.73;5.97;;;5.00;99.90;;;;;;5033972;28;20218;-69
2022/03/19 04:29:29;;;;;;;12.30;4.83;;;5.00;99.90;;;;;;5032604;28;20258;-69
2022/03/19 04:31:55;;;;;;;14.57;5.27;;;5.00;99.90;;;;;;5032429;28;20208;-69
2022/03/19 04:34:20;;;;;;;12.10;5.37;;;5.00;99.90;;;;;;5036532;28;20207;-71
2022/03/19 04:36:46;;;;;;;17.03;5.37;;;5.00;99.90;;;;;;5052015;28;20284;-71
2022/03/19 04:39:12;;;;;;;13.40;5.20;;;5.00;99.90;;;;;;5053253;28;20186;-71
2022/03/19 04:41:38;;;;;;;17.40;5.53;;;4.90;99.90;;;;;;5051908;28;20206;-69
2022/03/19 04:44:05;;;;;;;20.37;5.63;;;4.90;99.90;;;;;;5051916;28;20705;-69
2022/03/19 04:46:31;;;;;;;14.13;5.20;;;4.90;99.90;;;;;;5052876;28;20767;-69
2022/03/19 04:48:57;;;;;;;19.40;5.10;;;4.90;99.90;;;;;;5052562;28;20201;-69
2022/03/19 04:51:32;;;;;;;16.47;5.87;;;4.80;99.90;;;;;;5051552;28;20189;-69
2022/03/19 04:53:57;;;;;;;13.43;5.10;;;4.80;99.90;;;;;;5053504;28;20186;-69
2022/03/19 04:56:24;;;;;;;18.87;5.77;;;4.90;99.90;;;;;;5052812;28;20296;-69
2022/03/19 04:58:51;;;;;;;13.73;5.70;;;4.70;99.90;;;;;;5050742;28;20209;-69
2022/03/19 05:01:17;;;;;;;20.23;5.37;;;4.70;99.90;;;;;;5051955;28;20618;-69
2022/03/19 05:03:42;;;;;;;12.23;5.50;;;4.70;99.90;;;;;;5050653;28;20226;-69
2022/03/19 05:06:08;;;;;;;20.63;5.83;;;4.70;99.90;;;;;;5052425;28;20204;-70
2022/03/19 05:08:33;;;;;;;24.33;6.20;;;4.70;99.90;;;;;;5033812;28;20692;-70
2022/03/19 05:11:14;;;;;;;16.87;5.80;;;4.60;99.90;;;;;;5032623;28;20564;-70
2022/03/19 05:13:41;;;;;;;23.23;5.87;;;4.70;99.90;;;;;;5032762;28;20213;-70
2022/03/19 05:16:06;;;;;;;22.23;6.57;;;4.80;99.90;;;;;;5032060;28;20837;-70
2022/03/19 05:18:32;;;;;;;12.97;5.30;;;4.70;99.90;;;;;;5031901;28;20179;-70
2022/03/19 05:20:58;;;;;;;18.43;6.10;;;4.70;99.90;;;;;;5046272;28;20674;-69
2022/03/19 05:23:23;;;;;;;14.00;5.50;;;4.80;99.90;;;;;;5052300;28;20236;-69
2022/03/19 05:25:49;;;;;;;13.83;5.43;;;4.90;99.90;;;;;;5050824;28;20222;-69
2022/03/19 05:28:15;;;;;;;16.83;5.83;;;5.00;99.90;;;;;;5051635;28;20593;-69
2022/03/19 05:30:41;;;;;;;15.63;6.23;;;5.10;99.90;;;;;;5041322;28;20242;-69
2022/03/19 05:33:07;;;;;;;19.03;5.73;;;5.00;99.90;;;;;;5031704;28;20179;-69
2022/03/19 05:35:32;;;;;;;19.83;6.00;;;4.90;99.90;;;;;;5035069;28;20229;-69
2022/03/19 05:38:01;;;;;;;16.47;5.10;;;5.00;99.90;;;;;;5031794;28;20581;-69
2022/03/19 05:40:28;;;;;;;16.10;6.00;;;5.00;99.90;;;;;;5031972;28;20226;-69
2022/03/19 05:42:54;;;;;;;13.40;5.03;;;5.00;99.90;;;;;;5032293;28;20206;-69
2022/03/19 05:45:20;;;;;;;16.83;6.00;;;5.20;99.90;;;;;;5032113;28;20218;-70
2022/03/19 05:47:46;;;;;;;17.63;5.83;;;5.10;99.90;;;;;;5032379;28;20662;-69
2022/03/19 05:50:13;;;;;;;16.77;5.60;;;5.20;99.90;;;;;;5031808;28;20211;-70
2022/03/19 05:52:39;;;;;;;16.37;5.23;;;5.20;99.90;;;;;;5031544;28;20209;-69
2022/03/19 05:55:06;;;;;;;14.53;5.43;;;5.30;99.90;;;;;;5049450;28;20249;-71
2022/03/19 05:57:31;;;;;;;19.40;5.70;;;5.50;99.90;;;;;;5052320;28;20168;-70
2022/03/19 05:59:57;;;;;;;17.97;5.83;;;5.50;99.90;;;;;;5051986;28;20204;-70
2022/03/19 06:02:22;;;;;;;14.73;5.67;;;5.60;99.90;;;;;;5052106;28;20222;-70
2022/03/19 06:04:48;;;;;;;15.27;5.50;;;5.60;99.90;;;;;;5051888;28;20223;-69
2022/03/19 06:07:13;;;;;;;16.70;5.03;;;5.60;99.90;;;;;;5052212;28;20720;-70
2022/03/19 06:09:39;;;;;;;15.40;4.67;;;6.90;99.90;;;;;;5051019;28;20219;-70
2022/03/19 06:12:04;;;;;;;11.83;4.83;;;9.40;99.90;;;;;;5052283;28;20515;-70
2022/03/19 06:14:30;;;;;;;14.43;4.23;;;11.20;99.90;;;;;;5050239;28;20204;-70
2022/03/19 06:16:55;;;;;;;12.40;4.17;;;12.00;99.90;;;;;;5051677;28;20207;-70
2022/03/19 06:19:21;;;;;;;11.07;4.07;;;13.30;99.90;;;;;;5051079;28;20199;-70
2022/03/19 06:21:47;;;;;;;10.57;3.73;;;14.10;99.90;;;;;;5050284;28;20242;-70
2022/03/19 06:24:12;;;;;;;14.40;3.88;;;15.00;99.90;;;;;;5051373;28;20207;-70
2022/03/19 06:26:38;;;;;;;8.40;3.35;;;16.30;99.90;;;;;;5050362;28;20734;-70
2022/03/19 06:29:03;;;;;;;9.75;3.80;;;16.10;99.90;;;;;;5050658;28;20747;-70
2022/03/19 06:31:29;;;;;;;10.95;3.80;;;16.50;99.90;;;;;;5051205;28;20221;-71
2022/03/19 06:33:55;;;;;;;7.25;3.38;;;17.20;99.90;;;;;;5051251;28;20211;-70
2022/03/19 06:39:05;;;;;;;6.60;3.17;;;17.20;99.90;;;;;;5051080;28;20671;-71
2022/03/19 06:41:31;;;;;;;9.63;3.72;;;17.70;99.90;;;;;;5049795;28;20215;-71
2022/03/19 06:43:57;;;;;;;8.65;3.35;;;17.80;99.90;;;;;;5051104;28;20215;-71
2022/03/19 06:46:23;;;;;;;10.73;3.40;;;18.10;99.90;;;;;;5049509;28;20855;-71
2022/03/19 06:48:49;;;;;;;8.77;3.33;;;18.00;99.90;;;;;;5049301;28;20232;-71
2022/03/19 06:51:16;;;;;;;10.32;3.67;;;18.20;99.90;;;;;;5050342;28;20682;-72
2022/03/19 06:53:42;;;;;;;7.25;3.45;;;18.70;99.90;;;;;;5050695;28;20212;-72
2022/03/19 06:56:07;;;;;;;7.30;3.20;;;18.20;99.90;;;;;;5051043;28;20215;-71
2022/03/19 06:58:33;;;;;;;7.20;3.30;;;18.30;99.90;;;;;;5050081;28;20211;-71
2022/03/19 07:01:00;;;;;;;9.18;2.97;;;18.50;99.90;;;;;;5051050;28;20203;-72
2022/03/19 07:03:26;;;;;;;6.97;3.15;;;18.50;99.90;;;;;;5049496;28;20199;-72
2022/03/19 07:05:52;;;;;;;9.25;3.40;;;18.60;99.90;;;;;;5051251;28;20199;-71
2022/03/19 07:08:17;;;;;;;8.23;3.00;;;18.50;99.90;;;;;;5050232;28;20286;-71
2022/03/19 07:10:43;;;;;;;9.57;3.25;;;17.80;99.90;;;;;;5050924;28;20249;-70
2022/03/19 07:13:08;;;;;;;7.20;2.75;;;18.00;99.90;;;;;;5049540;28;20253;-70
2022/03/19 07:15:34;;;;;;;11.43;3.15;;;18.60;99.90;;;;;;5049644;28;20188;-70
2022/03/19 07:18:01;;;;;;;6.45;2.85;;;18.70;99.90;;;;;;5050704;28;20653;-72
2022/03/19 07:20:28;;;;;;;6.72;3.20;;;19.00;99.90;;;;;;5042628;28;20697;-72
2022/03/19 07:22:55;;;;;;;10.13;2.70;;;19.30;99.90;;;;;;5044273;28;20212;-72
2022/03/19 07:28:08;;;;;;;10.32;4.70;;;19.40;98.80;;;;;;5062641;28;20273;-78
2022/03/19 07:30:33;;;;;;;9.10;3.83;;;19.40;99.40;;;;;;5042492;28;20176;-78
2022/03/19 07:32:59;;;;;;;8.00;3.30;;;18.90;99.50;;;;;;5044834;28;20182;-78
2022/03/19 07:35:26;;;;;;;9.90;3.75;;;18.90;99.90;;;;;;5070041;28;20213;-78
2022/03/19 07:37:51;;;;;;;10.10;3.50;;;19.10;99.30;;;;;;5063768;28;20207;-78
2022/03/19 07:41:45;;;;;;;9.50;3.05;;;19.20;98.40;;;;;;5055937;28;20203;-79
2022/03/19 07:43:06;;;;;;;5.25;2.50;;;19.30;98.30;;;;;;5074326;28;20222;-78
2022/03/19 07:45:32;;;;;;;8.02;3.00;;;19.00;98.00;;;;;;5074532;28;20214;-78
2022/03/19 07:47:59;;;;;;;6.97;3.17;;;19.40;98.00;;;;;;5074192;28;20159;-78
2022/03/19 07:50:24;;;;;;;10.23;2.97;;;19.10;98.30;;;;;;5074070;28;20195;-77
2022/03/19 07:52:50;;;;;;;7.13;2.85;;;18.80;97.70;;;;;;5070977;28;20290;-78
2022/03/19 07:55:16;;;;;;;8.20;3.03;;;17.90;99.00;;;;;;5066080;28;20227;-77
2022/03/19 07:57:42;;;;;;;9.32;2.70;;;18.40;99.20;;;;;;5073801;28;20646;-79
2022/03/19 08:00:09;;;;;;;6.55;2.60;;;18.00;99.60;;;;;;5050292;28;20183;-77
2022/03/19 08:02:35;;;;;;;8.25;3.22;;;17.60;99.40;;;;;;5052599;28;20199;-78
2022/03/19 08:05:03;;;;;;;8.68;3.35;;;16.50;99.90;;;;;;5059739;28;20367;-77
2022/03/19 08:07:29;;;;;;;10.43;3.30;;;16.80;99.90;;;;;;5055946;28;20612;-78
2022/03/19 08:09:54;;;;;;;10.75;3.22;;;17.10;99.90;;;;;;5073523;28;20298;-78
2022/03/19 08:12:20;;;;;;;8.35;2.88;;;17.40;99.90;;;;;;5074055;28;20262;-76
2022/03/19 08:14:45;;;;;;;9.40;2.95;;;16.90;99.90;;;;;;5074328;28;20175;-77
2022/03/19 08:17:11;;;;;;;8.38;2.88;;;15.80;99.90;;;;;;5054553;28;20569;-76
2022/03/19 08:19:37;;;;;;;8.07;2.90;;;15.30;99.90;;;;;;5064906;28;20211;-77
2022/03/19 08:22:03;;;;;;;7.57;2.78;;;16.10;99.90;;;;;;5073903;28;20256;-78
2022/03/19 08:24:28;;;;;;;9.02;2.80;;;16.10;99.90;;;;;;5073120;28;20230;-77
2022/03/19 08:26:54;;;;;;;8.23;2.70;;;15.60;99.90;;;;;;5074101;28;20249;-78
2022/03/19 08:29:23;;;;;;;9.17;2.47;;;15.00;99.90;;;;;;5055011;28;20392;-78
2022/03/19 08:31:49;;;;;;;8.60;2.20;;;15.60;99.90;;;;;;5073697;28;20195;-77
2022/03/19 08:34:15;;;;;;;10.07;2.43;;;15.50;99.90;;;;;;5055624;28;20234;-77
2022/03/19 08:36:40;;;;;;;9.47;2.43;;;14.90;99.90;;;;;;5052852;28;20211;-79
2022/03/19 08:41:50;;;;;;;7.10;2.20;;;16.40;99.90;;;;;;5074128;28;20734;-77
2022/03/19 08:44:15;;;;;;;9.00;2.60;;;15.70;99.90;;;;;;5047590;28;20290;-77
2022/03/19 08:46:41;;;;;;;7.07;2.43;;;14.70;99.90;;;;;;5055544;28;20207;-77
2022/03/19 08:49:06;;;;;;;8.30;2.53;;;13.60;99.90;;;;;;5071910;28;20192;-77
2022/03/19 08:51:41;;;;;;;9.07;2.50;;;12.20;99.90;;;;;;5055414;28;20690;-78
2022/03/19 08:54:18;;;;;;;8.43;2.47;;;11.40;99.90;;;;;;5055532;28;20186;-77
2022/03/19 08:56:47;;;;;;;8.33;2.73;;;11.80;99.90;;;;;;5065120;28;20229;-77
2022/03/19 08:59:13;;;;;;;11.70;3.40;;;12.10;99.90;;;;;;5072323;28;20710;-77
2022/03/19 09:01:40;;;;;;;7.30;2.67;;;12.60;99.90;;;;;;5055035;28;20210;-79
2022/03/19 09:04:07;;;;;;;10.93;2.43;;;13.30;99.90;;;;;;5072958;28;20218;-77
2022/03/19 09:06:33;;;;;;;8.37;2.47;;;13.30;99.90;;;;;;5072961;28;20191;-77
2022/03/19 09:09:03;;;;;;;12.20;2.63;;;13.50;99.90;;;;;;5073063;28;20175;-78
2022/03/19 09:11:33;;;;;;;8.40;2.40;;;12.60;99.90;;;;;;5073240;28;20210;-77
2022/03/19 09:13:58;;;;;;;8.40;2.50;;;13.10;99.90;;;;;;5074589;28;20199;-77
2022/03/19 09:16:24;;;;;;;8.17;2.67;;;12.90;99.90;;;;;;5073632;28;20203;-77
2022/03/19 09:18:50;;;;;;;8.63;2.43;;;13.10;99.90;;;;;;5047595;28;20658;-76
2022/03/19 09:21:17;;;;;;;9.37;2.67;;;13.60;99.90;;;;;;5073327;28;20224;-77
2022/03/19 09:23:45;;;;;;;8.80;2.57;;;13.60;99.90;;;;;;5055226;28;20227;-77
2022/03/19 09:26:11;;;;;;;6.53;2.23;;;12.50;99.90;;;;;;5048721;28;20294;-77
2022/03/19 09:28:37;;;;;;;7.97;2.43;;;12.20;99.90;;;;;;5053540;28;20583;-76
2022/03/19 09:31:03;;;;;;;7.97;2.83;;;11.80;99.90;;;;;;5072910;28;20203;-77
2022/03/19 09:33:28;;;;;;;8.60;2.27;;;12.50;99.90;;;;;;5073302;28;20189;-77
2022/03/19 09:35:54;;;;;;;9.07;2.40;;;12.20;99.90;;;;;;5055636;28;20243;-77
2022/03/19 09:38:19;;;;;;;7.60;2.20;;;12.10;99.90;;;;;;5054208;28;20287;-77
2022/03/19 09:40:45;;;;;;;9.57;2.60;;;12.40;99.90;;;;;;5064388;28;20214;-77
2022/03/19 09:43:11;;;;;;;8.60;2.47;;;12.70;99.90;;;;;;5055223;28;20206;-77
2022/03/19 09:45:38;;;;;;;7.03;2.30;;;12.90;99.90;;;;;;5072465;28;20295;-76
2022/03/19 09:48:04;;;;;;;5.30;1.97;;;12.60;99.90;;;;;;5072689;28;20199;-77
2022/03/19 09:50:30;;;;;;;9.53;2.47;;;12.10;99.90;;;;;;5072717;28;20218;-77
2022/03/19 09:52:57;;;;;;;8.13;2.70;;;11.90;99.90;;;;;;5072347;28;20240;-77
2022/03/19 09:55:26;;;;;;;9.20;2.57;;;12.30;99.90;;;;;;5054575;28;20575;-78
2022/03/19 09:57:54;;;;;;;7.83;2.30;;;11.60;99.90;;;;;;5054443;28;20214;-77
2022/03/19 10:00:22;;;;;;;9.87;2.10;;;11.80;99.90;;;;;;5071944;28;20253;-77
2022/03/19 10:02:53;;;;;;;12.10;2.53;;;11.50;99.90;;;;;;5055044;28;20175;-78
2022/03/19 10:10:49;;;;;;;5.97;2.40;;;10.50;99.90;;;;;;5072103;28;20214;-77
2022/03/19 10:13:15;;;;;;;5.23;1.93;;;10.90;99.90;;;;;;5071965;28;20207;-78
2022/03/19 10:15:41;;;;;;;5.60;2.40;;;10.90;99.90;;;;;;5071734;28;20691;-78
2022/03/19 10:18:10;;;;;;;6.93;2.30;;;11.00;99.90;;;;;;5053775;28;20183;-77
2022/03/19 10:20:37;;;;;;;10.53;2.90;;;11.00;99.90;;;;;;5054078;28;20207;-77
2022/03/19 10:23:03;;;;;;;5.43;2.20;;;11.30;99.90;;;;;;5063453;28;20294;-75
2022/03/19 10:25:29;;;;;;;7.60;2.23;;;11.40;99.90;;;;;;5053561;28;20713;-77
2022/03/19 10:28:08;;;;;;;7.80;2.33;;;11.60;99.90;;;;;;5070958;28;20211;-78
2022/03/19 10:30:39;;;;;;;9.77;2.73;;;11.80;99.90;;;;;;5053827;28;20563;-76
2022/03/19 10:33:08;;;;;;;12.03;3.10;;;11.90;99.90;;;;;;5057708;28;20198;-77
2022/03/19 10:35:42;;;;;;;10.80;2.57;;;11.40;99.90;;;;;;5069700;28;20683;-77
2022/03/19 10:38:23;;;;;;;10.27;2.90;;;11.80;99.90;;;;;;5052797;28;20225;-77
2022/03/19 10:40:52;;;;;;;6.77;2.30;;;11.10;99.90;;;;;;5053510;28;20289;-78
2022/03/19 10:43:22;;;;;;;9.47;2.57;;;11.00;99.90;;;;;;5071041;28;20211;-77
2022/03/19 10:45:49;;;;;;;7.43;2.60;;;10.90;99.90;;;;;;5071423;28;20676;-78
2022/03/19 10:48:23;;;;;;;5.77;2.23;;;11.30;99.90;;;;;;5070951;28;20214;-77
2022/03/19 10:50:51;;;;;;;6.57;2.43;;;11.00;99.90;;;;;;5063742;28;20278;-78
2022/03/19 10:53:18;;;;;;;7.23;2.67;;;11.20;99.90;;;;;;5052918;28;20237;-78
2022/03/19 10:55:44;;;;;;;7.63;2.83;;;11.50;99.90;;;;;;5071002;28;20302;-78
2022/03/19 10:58:10;;;;;;;9.40;3.07;;;11.60;99.90;;;;;;5052480;28;20218;-77
2022/03/19 11:00:36;;;;;;;9.13;3.20;;;11.60;99.90;;;;;;5071021;28;20261;-77
2022/03/19 11:03:11;;;;;;;8.77;2.80;;;11.60;99.90;;;;;;5071698;28;20204;-77
2022/03/19 11:05:38;;;;;;;7.80;2.70;;;11.60;99.90;;;;;;5053163;28;20202;-77
2022/03/19 11:08:07;;;;;;;6.37;2.40;;;11.50;99.90;;;;;;5070352;28;20199;-76
2022/03/19 11:10:35;;;;;;;7.83;3.57;;;11.40;99.90;;;;;;5070975;28;20256;-77
2022/03/19 11:13:01;;;;;;;5.63;2.60;;;11.40;99.90;;;;;;5071124;28;20226;-78
2022/03/19 11:15:32;;;;;;;7.17;3.00;;;11.50;99.90;;;;;;5071646;28;20284;-76
2022/03/19 11:18:03;;;;;;;12.33;3.23;;;11.80;99.90;;;;;;5053102;28;20312;-75
2022/03/19 11:20:30;;;;;;;10.10;3.07;;;11.70;99.90;;;;;;5071494;28;20206;-77
2022/03/19 11:22:59;;;;;;;7.30;3.00;;;11.50;99.90;;;;;;5070733;28;20288;-77
2022/03/19 11:25:27;;;;;;;8.47;3.60;;;11.30;99.90;;;;;;5070979;28;20225;-78
2022/03/19 11:28:22;;;;;;;10.43;3.10;;;11.40;99.90;;;;;;5052759;28;20215;-78
2022/03/19 11:31:04;;;;;;;8.63;2.53;;;11.60;99.90;;;;;;5036476;28;20280;-77
2022/03/19 11:33:32;;;;;;;6.60;2.87;;;11.70;99.90;;;;;;5070960;28;20769;-78
2022/03/19 11:36:10;;;;;;;8.43;2.90;;;11.60;99.90;;;;;;5053316;28;20195;-77
2022/03/19 11:38:51;;;;;;;6.93;3.23;;;11.30;99.90;;;;;;5052010;28;20713;-78
2022/03/19 11:41:23;;;;;;;8.60;3.40;;;11.20;99.90;;;;;;5071453;28;20236;-77
2022/03/19 11:43:49;;;;;;;6.47;2.10;;;11.00;99.90;;;;;;5053266;28;20293;-78
2022/03/19 11:46:15;;;;;;;6.70;2.60;;;10.80;99.90;;;;;;5070693;28;20207;-77
2022/03/19 11:48:51;;;;;;;10.10;2.87;;;10.80;99.90;;;;;;5051938;28;20211;-77
2022/03/19 11:51:37;;;;;;;8.17;2.90;;;10.40;99.90;;;;;;5052741;28;20241;-77
2022/03/19 11:54:12;;;;;;;8.47;3.50;;;10.50;99.90;;;;;;5070872;28;20182;-76
2022/03/19 11:56:47;;;;;;;11.17;3.50;;;10.50;99.90;;;;;;5070752;28;20298;-78
2022/03/19 11:59:31;;;;;;;11.90;3.23;;;10.80;99.90;;;;;;5080236;28;20220;-78
2022/03/19 12:02:05;;;;;;;6.57;3.70;;;10.70;99.90;;;;;;5078831;28;20214;-77
2022/03/19 12:04:52;;;;;;;11.77;3.97;;;10.90;99.90;;;;;;5086158;28;20219;-78
2022/03/19 12:07:41;;;;;;;8.93;4.30;;;10.90;99.90;;;;;;5081557;28;20222;-78
2022/03/19 12:10:15;;;;;;;10.43;4.87;;;11.00;99.90;;;;;;5084793;28;20199;-79
2022/03/19 12:12:42;;;;;;;8.73;4.83;;;10.80;99.90;;;;;;5088605;28;20218;-79
2022/03/19 12:15:32;;;;;;;12.73;6.17;;;10.90;99.90;;;;;;5084674;28;20174;-79
2022/03/19 12:18:43;;;;;;;10.93;5.00;;;10.90;99.90;;;;;;5086587;28;20199;-77
2022/03/19 12:21:08;;;;;;;11.20;4.47;;;11.30;99.90;;;;;;5085945;28;20203;-77
2022/03/19 12:23:47;;;;;;;12.87;5.77;;;11.00;99.90;;;;;;5089706;28;20249;-79
2022/03/19 12:26:16;;;;;;;9.30;4.47;;;11.30;99.90;;;;;;5069698;28;20210;-79
2022/03/19 12:28:43;;;;;;;11.63;5.43;;;11.40;99.90;;;;;;5073245;28;20621;-78
2022/03/19 12:31:14;;;;;;;9.17;4.90;;;11.10;99.90;;;;;;5056374;28;20248;-78
2022/03/19 12:33:40;;;;;;;9.50;4.87;;;10.90;99.90;;;;;;5056275;28;20230;-78
2022/03/19 12:36:16;;;;;;;10.83;5.00;;;10.90;99.90;;;;;;5074384;28;20183;-78
2022/03/19 12:38:42;;;;;;;9.63;5.17;;;11.00;99.90;;;;;;5051847;28;20599;-78
2022/03/19 12:41:38;;;;;;;13.43;5.73;;;11.00;99.90;;;;;;5053423;28;20226;-78
2022/03/19 12:44:25;;;;;;;13.93;6.10;;;11.20;99.90;;;;;;5035955;28;20208;-79
2022/03/19 12:47:03;;;;;;;11.03;5.50;;;11.30;99.90;;;;;;5052014;28;20207;-78
2022/03/19 12:49:30;;;;;;;10.17;5.73;;;11.60;99.90;;;;;;5051360;28;20196;-78
2022/03/19 12:51:56;;;;;;;12.57;5.80;;;11.50;99.90;;;;;;5052409;28;20767;-79
2022/03/19 12:54:27;;;;;;;14.27;6.90;;;11.10;99.90;;;;;;5053388;28;20196;-77
2022/03/19 12:56:56;;;;;;;11.43;7.10;;;11.00;99.90;;;;;;5056718;28;20196;-77
2022/03/19 12:59:23;;;;;;;16.97;8.00;;;11.30;99.90;;;;;;5054413;28;20591;-76
2022/03/19 13:01:50;;;;;;;15.67;8.07;;;11.40;99.90;;;;;;5055787;28;20219;-76
2022/03/19 13:04:24;;;;;;;16.00;10.37;;;11.00;99.90;;;;;;5055456;28;20722;-78